Time;durP1;ratioP1;P1;durP2;ratioP2;P2;SDS_P1;SDS_P2;PMS_P1;PMS_P2;Temp;Humidity;BMP_temperature;BMP_pressure;BME280_temperature;BME280_humidity;BME280_pressure;Samples;Min_cycle;Max_cycle;Signal;HPM_P1;HPM_P2
2023/04/20 00:01:46;;;;;;;8.10;5.38;;;5.00;99.90;;;;;;5035975;28;20056;-35
2023/04/20 00:04:14;;;;;;;9.82;5.68;;;5.00;99.90;;;;;;5035808;28;20637;-35
2023/04/20 00:06:41;;;;;;;8.32;5.90;;;5.00;99.90;;;;;;5037223;28;20057;-36
2023/04/20 00:09:07;;;;;;;10.32;5.97;;;5.10;99.90;;;;;;5036389;28;20053;-40
2023/04/20 00:11:32;;;;;;;8.13;5.35;;;5.10;99.90;;;;;;5028879;28;20163;-39
2023/04/20 00:13:58;;;;;;;7.50;5.05;;;4.90;99.90;;;;;;5028959;28;20045;-39
2023/04/20 00:16:24;;;;;;;9.25;5.55;;;4.90;99.90;;;;;;5023775;28;20318;-42
2023/04/20 00:18:50;;;;;;;11.93;5.40;;;5.00;99.90;;;;;;5022578;28;20053;-36
2023/04/20 00:21:16;;;;;;;9.98;6.20;;;5.10;99.90;;;;;;5027723;28;20127;-35
2023/04/20 00:23:42;;;;;;;12.60;5.63;;;5.20;99.90;;;;;;5030439;28;20514;-38
2023/04/20 00:26:07;;;;;;;7.00;5.07;;;5.40;99.90;;;;;;5036437;28;20045;-35
2023/04/20 00:28:33;;;;;;;9.50;5.13;;;5.40;99.90;;;;;;5036273;28;20041;-38
2023/04/20 00:30:59;;;;;;;8.18;5.00;;;5.40;99.90;;;;;;5023792;28;20365;-41
2023/04/20 00:33:24;;;;;;;8.68;5.30;;;5.40;99.90;;;;;;5034409;28;20040;-41
2023/04/20 00:35:50;;;;;;;9.27;5.68;;;5.50;99.90;;;;;;5036804;28;20492;-36
2023/04/20 00:38:16;;;;;;;14.25;5.80;;;5.40;99.90;;;;;;5034886;28;20041;-38
2023/04/20 00:40:47;;;;;;;7.50;5.47;;;5.40;99.90;;;;;;5023405;28;20056;-37
2023/04/20 00:43:14;;;;;;;15.18;6.35;;;5.30;99.90;;;;;;5035173;28;20430;-35
2023/04/20 00:45:40;;;;;;;11.02;5.65;;;5.30;99.90;;;;;;5035338;28;20045;-35
2023/04/20 00:48:06;;;;;;;11.00;4.97;;;5.20;99.90;;;;;;5023129;28;20046;-34
2023/04/20 00:50:33;;;;;;;10.27;6.10;;;5.10;99.90;;;;;;5036221;28;20044;-34
2023/04/20 00:53:00;;;;;;;9.43;5.05;;;5.10;99.90;;;;;;5035133;28;20049;-35
2023/04/20 00:55:28;;;;;;;9.70;5.15;;;5.00;99.90;;;;;;5036427;28;20041;-42
2023/04/20 00:57:53;;;;;;;9.55;5.60;;;4.90;99.90;;;;;;5036332;28;20041;-40
2023/04/20 01:00:20;;;;;;;8.48;5.35;;;4.90;99.90;;;;;;5027786;28;20473;-36
2023/04/20 01:02:47;;;;;;;13.45;5.07;;;4.90;99.90;;;;;;5033284;28;20545;-35
2023/04/20 01:05:13;;;;;;;8.45;4.88;;;4.80;99.90;;;;;;5024090;28;20044;-39
2023/04/20 01:07:38;;;;;;;10.07;4.88;;;4.80;99.90;;;;;;5021975;28;20049;-40
2023/04/20 01:10:06;;;;;;;10.85;4.72;;;4.80;99.90;;;;;;5035375;28;20479;-41
2023/04/20 01:12:32;;;;;;;7.88;4.35;;;4.80;99.90;;;;;;5035531;28;20082;-40
2023/04/20 01:14:58;;;;;;;8.02;4.68;;;5.00;99.90;;;;;;5034873;28;20187;-38
2023/04/20 01:17:23;;;;;;;7.35;3.97;;;5.10;99.90;;;;;;5036079;28;20214;-39
2023/04/20 01:19:49;;;;;;;11.60;4.70;;;5.20;99.90;;;;;;5035171;28;20037;-38
2023/04/20 01:22:20;;;;;;;8.13;4.38;;;5.40;99.90;;;;;;5035826;28;20067;-34
2023/04/20 01:24:45;;;;;;;8.98;4.40;;;5.50;99.90;;;;;;5033610;28;20044;-37
2023/04/20 01:27:12;;;;;;;8.23;4.38;;;5.50;99.90;;;;;;5021798;28;20041;-38
2023/04/20 01:29:38;;;;;;;6.65;4.05;;;5.50;99.90;;;;;;5027248;28;20052;-40
2023/04/20 01:32:05;;;;;;;8.70;5.03;;;5.50;99.90;;;;;;5032823;28;20048;-42
2023/04/20 01:34:30;;;;;;;7.13;3.92;;;5.50;99.90;;;;;;5035581;28;20067;-35
2023/04/20 01:36:57;;;;;;;10.25;4.10;;;5.60;99.90;;;;;;5036366;28;20384;-41
2023/04/20 01:39:23;;;;;;;6.22;4.13;;;5.60;99.90;;;;;;5025676;28;20034;-36
2023/04/20 01:41:48;;;;;;;8.15;4.50;;;5.70;99.90;;;;;;5032585;28;20148;-39
2023/04/20 01:44:14;;;;;;;8.48;4.70;;;5.80;99.90;;;;;;5035267;28;20822;-38
2023/04/20 01:46:40;;;;;;;6.72;4.00;;;5.90;99.90;;;;;;5035763;28;20231;-41
2023/04/20 01:49:06;;;;;;;7.57;4.18;;;5.90;99.90;;;;;;5035192;28;20048;-41
2023/04/20 01:51:34;;;;;;;5.82;3.65;;;6.00;99.90;;;;;;5050036;28;20569;-37
2023/04/20 01:54:00;;;;;;;12.65;4.47;;;6.00;99.90;;;;;;5035044;28;20496;-39
2023/04/20 01:56:26;;;;;;;6.82;3.47;;;6.10;99.90;;;;;;5034763;28;20045;-38
2023/04/20 01:58:52;;;;;;;5.63;3.95;;;6.10;99.90;;;;;;5029118;28;20046;-34
2023/04/20 02:01:18;;;;;;;6.50;3.58;;;6.10;99.90;;;;;;5027370;28;20515;-36
2023/04/20 02:03:43;;;;;;;7.18;4.10;;;6.20;99.90;;;;;;5026372;28;20400;-39
2023/04/20 02:06:09;;;;;;;7.07;3.95;;;6.30;99.90;;;;;;5036198;28;20076;-41
2023/04/20 02:08:35;;;;;;;7.43;3.78;;;6.30;99.90;;;;;;5028574;28;20087;-41
2023/04/20 02:11:01;;;;;;;5.75;3.30;;;6.30;99.90;;;;;;5031158;28;20128;-39
2023/04/20 02:13:26;;;;;;;6.22;3.03;;;6.30;99.90;;;;;;5027682;28;20076;-40
2023/04/20 02:15:52;;;;;;;7.00;3.92;;;6.30;99.90;;;;;;5038994;28;20048;-36
2023/04/20 02:18:18;;;;;;;5.65;3.28;;;6.30;99.90;;;;;;5038692;28;20044;-40
2023/04/20 02:20:44;;;;;;;5.78;3.58;;;6.20;99.90;;;;;;5037809;28;20045;-41
2023/04/20 02:23:11;;;;;;;8.35;3.80;;;6.10;99.90;;;;;;5038247;28;20131;-37
2023/04/20 02:25:37;;;;;;;9.15;3.35;;;6.10;99.90;;;;;;5037756;28;20068;-39
2023/04/20 02:28:03;;;;;;;7.78;3.47;;;6.00;99.90;;;;;;5038939;28;20175;-39
2023/04/20 02:30:29;;;;;;;9.07;3.90;;;5.90;99.90;;;;;;5026131;28;20071;-37
2023/04/20 02:32:55;;;;;;;7.45;4.55;;;5.80;99.90;;;;;;5038081;28;20045;-38
2023/04/20 02:35:21;;;;;;;9.13;2.90;;;5.80;99.90;;;;;;5038093;28;20044;-35
2023/04/20 02:37:47;;;;;;;8.10;3.80;;;5.70;99.90;;;;;;5038022;28;20051;-39
2023/04/20 02:40:13;;;;;;;8.80;3.70;;;5.60;99.90;;;;;;5037352;28;20090;-38
2023/04/20 02:42:39;;;;;;;8.98;3.53;;;5.60;99.90;;;;;;5038162;28;20080;-42
2023/04/20 02:45:05;;;;;;;12.93;4.25;;;5.60;99.90;;;;;;5053824;28;20459;-42
2023/04/20 02:47:31;;;;;;;11.90;4.57;;;5.60;99.90;;;;;;5038859;28;20045;-35
2023/04/20 02:49:56;;;;;;;7.07;3.47;;;5.60;99.90;;;;;;5037653;28;20102;-37
2023/04/20 02:52:22;;;;;;;7.13;3.63;;;5.60;99.90;;;;;;5038288;28;20035;-35
2023/04/20 02:54:48;;;;;;;8.38;4.93;;;5.60;99.90;;;;;;5037515;28;20454;-36
2023/04/20 02:57:13;;;;;;;10.68;3.67;;;5.60;99.90;;;;;;5038536;28;20474;-39
2023/04/20 02:59:39;;;;;;;7.40;3.95;;;5.60;99.90;;;;;;5029994;28;20071;-38
2023/04/20 03:02:05;;;;;;;8.38;3.72;;;5.60;99.90;;;;;;5038065;28;20045;-36
2023/04/20 03:04:31;;;;;;;7.43;3.83;;;5.60;99.90;;;;;;5037101;28;20041;-40
2023/04/20 03:06:57;;;;;;;11.52;3.35;;;5.70;99.90;;;;;;5035859;28;20053;-40
2023/04/20 03:09:26;;;;;;;12.35;5.28;;;5.80;99.90;;;;;;5036359;28;20041;-35
2023/04/20 03:11:53;;;;;;;7.40;3.38;;;5.90;99.90;;;;;;5037897;28;20041;-40
2023/04/20 03:14:18;;;;;;;12.82;4.05;;;6.00;99.90;;;;;;5036838;28;20053;-39
2023/04/20 03:16:45;;;;;;;10.93;4.03;;;6.00;99.90;;;;;;5037052;28;20063;-39
2023/04/20 03:19:10;;;;;;;12.43;4.10;;;6.10;99.90;;;;;;5036442;28;20106;-36
2023/04/20 03:21:36;;;;;;;7.85;4.22;;;6.20;99.90;;;;;;5025941;28;20527;-35
2023/04/20 03:24:02;;;;;;;5.72;3.67;;;6.30;99.90;;;;;;5034235;28;20616;-40
2023/04/20 03:26:28;;;;;;;9.30;3.95;;;6.40;99.90;;;;;;5052613;28;20055;-35
2023/04/20 03:28:53;;;;;;;13.52;4.68;;;6.40;99.90;;;;;;5035871;28;20045;-41
2023/04/20 03:31:19;;;;;;;9.38;3.63;;;6.50;99.90;;;;;;5028714;28;20041;-38
2023/04/20 03:33:45;;;;;;;8.02;4.10;;;6.50;99.90;;;;;;5036715;28;20052;-37
2023/04/20 03:36:10;;;;;;;8.73;3.97;;;6.50;99.90;;;;;;5036730;28;20041;-35
2023/04/20 03:38:36;;;;;;;10.55;3.40;;;6.60;99.90;;;;;;5038552;28;20556;-35
2023/04/20 03:41:02;;;;;;;8.15;3.55;;;6.60;99.90;;;;;;5036546;28;20036;-40
2023/04/20 03:43:27;;;;;;;8.05;3.97;;;6.70;99.90;;;;;;5036215;28;20402;-38
2023/04/20 03:45:54;;;;;;;9.00;3.78;;;6.70;99.90;;;;;;5037608;28;20041;-36
2023/04/20 03:48:20;;;;;;;13.68;3.67;;;6.80;99.90;;;;;;5036918;28;20518;-41
2023/04/20 03:50:45;;;;;;;8.63;3.60;;;6.80;99.90;;;;;;5017209;28;20077;-39
2023/04/20 03:53:11;;;;;;;10.45;3.42;;;6.90;99.90;;;;;;5035557;28;20041;-37
2023/04/20 03:55:36;;;;;;;8.32;3.40;;;7.00;99.90;;;;;;5051534;28;20143;-37
2023/04/20 03:58:04;;;;;;;9.68;3.65;;;7.00;99.90;;;;;;5036457;28;20060;-38
2023/04/20 04:00:29;;;;;;;8.57;3.75;;;7.00;99.90;;;;;;5034197;28;20048;-40
2023/04/20 04:02:55;;;;;;;8.32;3.47;;;7.00;99.90;;;;;;5018922;28;20479;-35
2023/04/20 04:05:21;;;;;;;8.63;3.92;;;7.10;99.90;;;;;;5051201;28;20436;-36
2023/04/20 04:07:46;;;;;;;10.60;3.53;;;7.00;99.90;;;;;;5048028;28;20169;-38
2023/04/20 04:10:12;;;;;;;9.20;4.20;;;7.10;99.90;;;;;;5025948;28;20053;-38
2023/04/20 04:12:38;;;;;;;5.95;3.65;;;7.10;99.90;;;;;;5051038;28;20119;-37
2023/04/20 04:15:04;;;;;;;11.43;5.15;;;7.10;99.90;;;;;;5036404;28;20137;-41
2023/04/20 04:17:30;;;;;;;7.95;3.35;;;7.00;99.90;;;;;;5051514;28;20138;-41
2023/04/20 04:19:55;;;;;;;8.65;3.60;;;7.00;99.90;;;;;;5025660;28;20371;-40
2023/04/20 04:22:21;;;;;;;10.77;3.42;;;7.10;99.90;;;;;;5032288;28;20033;-36
2023/04/20 04:24:47;;;;;;;6.53;2.80;;;7.20;99.90;;;;;;5036169;28;20041;-38
2023/04/20 04:27:14;;;;;;;7.70;3.47;;;7.10;99.90;;;;;;5032986;28;20099;-37
2023/04/20 04:29:40;;;;;;;9.77;3.38;;;7.20;99.90;;;;;;5039493;28;20045;-39
2023/04/20 04:32:06;;;;;;;6.97;3.28;;;7.20;99.90;;;;;;5034681;28;20076;-37
2023/04/20 04:34:33;;;;;;;7.25;3.92;;;7.20;99.90;;;;;;5035971;28;20045;-34
2023/04/20 04:37:00;;;;;;;7.82;3.00;;;7.30;99.90;;;;;;5034347;28;20407;-41
2023/04/20 04:39:27;;;;;;;5.70;2.90;;;7.30;99.90;;;;;;5035823;28;20036;-36
2023/04/20 04:41:52;;;;;;;6.95;3.03;;;7.40;99.90;;;;;;5036263;28;20037;-34
2023/04/20 04:44:18;;;;;;;8.55;2.95;;;7.40;99.90;;;;;;5035140;28;20532;-37
2023/04/20 04:46:46;;;;;;;8.15;3.05;;;7.50;99.90;;;;;;5036290;28;20291;-38
2023/04/20 04:49:12;;;;;;;9.10;3.10;;;7.50;99.90;;;;;;5033153;28;20175;-35
2023/04/20 04:51:37;;;;;;;7.45;3.38;;;7.50;99.90;;;;;;5025562;28;20033;-34
2023/04/20 04:54:03;;;;;;;9.98;3.28;;;7.50;99.90;;;;;;5051091;28;20439;-34
2023/04/20 04:56:30;;;;;;;6.25;2.72;;;7.60;99.90;;;;;;5036689;28;20136;-35
2023/04/20 04:58:56;;;;;;;6.20;2.42;;;7.60;99.90;;;;;;5035622;28;20110;-38
2023/04/20 05:01:21;;;;;;;9.48;3.00;;;7.60;99.90;;;;;;5036715;28;20480;-36
2023/04/20 05:03:47;;;;;;;7.88;2.63;;;7.70;99.90;;;;;;5035502;28;20049;-37
2023/04/20 05:06:12;;;;;;;8.70;2.75;;;7.70;99.90;;;;;;5047304;28;20447;-34
2023/04/20 05:08:38;;;;;;;9.07;2.60;;;7.80;99.90;;;;;;5024730;28;20053;-41
2023/04/20 05:11:04;;;;;;;4.82;2.13;;;7.70;99.90;;;;;;5035325;28;20436;-39
2023/04/20 05:13:30;;;;;;;6.68;2.67;;;7.70;99.90;;;;;;5033561;28;20126;-39
2023/04/20 05:15:55;;;;;;;10.43;2.90;;;7.80;99.90;;;;;;5034317;28;20063;-36
2023/04/20 05:18:21;;;;;;;7.68;2.90;;;7.70;99.90;;;;;;5036699;28;20044;-35
2023/04/20 05:20:46;;;;;;;5.78;2.30;;;7.80;99.90;;;;;;5021704;28;20041;-38
2023/04/20 05:23:12;;;;;;;7.35;2.58;;;7.80;99.90;;;;;;5035486;28;20047;-35
2023/04/20 05:25:38;;;;;;;5.50;2.38;;;7.80;99.90;;;;;;5036017;28;20049;-34
2023/04/20 05:28:03;;;;;;;10.38;3.10;;;7.80;99.90;;;;;;5035771;28;20431;-38
2023/04/20 05:30:30;;;;;;;4.40;2.88;;;7.80;99.90;;;;;;5024219;28;20331;-39
2023/04/20 05:32:55;;;;;;;6.15;3.30;;;7.70;99.90;;;;;;5036727;28;20061;-36
2023/04/20 05:35:21;;;;;;;5.20;2.80;;;7.70;99.90;;;;;;5039679;28;20365;-37
2023/04/20 05:37:47;;;;;;;6.95;3.30;;;7.60;99.90;;;;;;5028814;28;20502;-37
2023/04/20 05:40:14;;;;;;;5.80;3.08;;;7.40;99.90;;;;;;5036308;28;20041;-35
2023/04/20 05:42:40;;;;;;;7.45;2.72;;;7.40;99.90;;;;;;5039046;28;20049;-40
2023/04/20 05:45:06;;;;;;;6.25;3.10;;;7.40;99.90;;;;;;5025513;28;20056;-39
2023/04/20 05:47:32;;;;;;;5.13;3.47;;;7.30;99.90;;;;;;5039526;28;20044;-38
2023/04/20 05:49:58;;;;;;;6.47;3.15;;;7.30;99.90;;;;;;5038055;28;20368;-36
2023/04/20 05:52:24;;;;;;;9.85;2.95;;;7.20;99.90;;;;;;5038609;28;20446;-40
2023/04/20 05:54:50;;;;;;;6.80;3.00;;;7.20;99.90;;;;;;5038621;28;20056;-42
2023/04/20 05:57:15;;;;;;;5.75;2.85;;;7.10;99.90;;;;;;5053764;28;20053;-38
2023/04/20 05:59:41;;;;;;;7.13;2.67;;;7.10;99.90;;;;;;5027225;28;20467;-39
2023/04/20 06:02:07;;;;;;;6.75;3.10;;;7.10;99.90;;;;;;5027912;28;20095;-42
2023/04/20 06:04:33;;;;;;;8.00;4.28;;;7.10;99.90;;;;;;5038431;28;20045;-35
2023/04/20 06:06:59;;;;;;;5.93;3.25;;;7.10;99.90;;;;;;5038899;28;20430;-37
2023/04/20 06:09:25;;;;;;;6.70;3.03;;;7.10;99.90;;;;;;5024881;28;20040;-41
2023/04/20 06:11:51;;;;;;;4.55;3.00;;;7.20;99.90;;;;;;5039780;28;20087;-39
2023/04/20 06:14:16;;;;;;;5.43;3.05;;;7.30;99.90;;;;;;5035135;28;20042;-39
2023/04/20 06:16:42;;;;;;;6.60;2.85;;;7.50;99.90;;;;;;5029392;28;20847;-35
2023/04/20 06:19:08;;;;;;;7.03;2.70;;;7.80;99.90;;;;;;5038224;28;20075;-42
2023/04/20 06:21:35;;;;;;;4.50;2.67;;;8.30;99.90;;;;;;5044445;28;20552;-35
2023/04/20 06:24:01;;;;;;;3.60;2.55;;;8.60;99.90;;;;;;5034917;28;20070;-35
2023/04/20 06:26:27;;;;;;;5.93;2.40;;;8.80;99.90;;;;;;5038031;28;20048;-42
2023/04/20 06:28:52;;;;;;;5.95;3.42;;;8.70;99.90;;;;;;5036333;28;20041;-39
2023/04/20 06:31:19;;;;;;;5.32;2.60;;;8.50;99.90;;;;;;5028849;28;20037;-38
2023/04/20 06:33:44;;;;;;;5.70;2.97;;;8.40;99.90;;;;;;5036952;28;20047;-36
2023/04/20 06:36:10;;;;;;;7.60;2.88;;;8.30;99.90;;;;;;5038135;28;20049;-38
2023/04/20 06:38:36;;;;;;;5.95;2.63;;;8.30;99.90;;;;;;5036044;28;20407;-43
2023/04/20 06:41:02;;;;;;;4.57;3.10;;;8.20;99.90;;;;;;5037655;28;20494;-39
2023/04/20 06:43:29;;;;;;;8.80;3.72;;;8.10;99.90;;;;;;5036594;28;20420;-38
2023/04/20 06:45:55;;;;;;;5.25;2.28;;;8.00;99.90;;;;;;5037634;28;20041;-38
2023/04/20 06:48:21;;;;;;;4.80;2.95;;;7.90;99.90;;;;;;5037723;28;20459;-37
2023/04/20 06:50:48;;;;;;;5.82;3.00;;;7.80;99.90;;;;;;5037080;28;20149;-39
2023/04/20 06:53:14;;;;;;;5.13;2.70;;;7.80;99.90;;;;;;5037389;28;20056;-37
2023/04/20 06:55:40;;;;;;;5.30;2.97;;;7.70;99.90;;;;;;5037923;28;20502;-35
2023/04/20 06:58:06;;;;;;;9.45;2.85;;;7.60;99.90;;;;;;5038072;28;20170;-36
2023/04/20 07:00:31;;;;;;;6.97;3.13;;;7.60;99.90;;;;;;5030273;28;20118;-35
2023/04/20 07:02:57;;;;;;;6.65;3.15;;;7.50;99.90;;;;;;5036498;28;20068;-38
2023/04/20 07:05:23;;;;;;;9.93;3.22;;;7.20;99.90;;;;;;5037660;28;20480;-38
2023/04/20 07:07:50;;;;;;;9.23;3.20;;;7.10;99.90;;;;;;5026529;28;20041;-38
2023/04/20 07:10:15;;;;;;;4.63;3.17;;;6.90;99.90;;;;;;5018172;28;20057;-37
2023/04/20 07:12:42;;;;;;;8.98;4.78;;;6.90;99.90;;;;;;5019996;28;20100;-37
2023/04/20 07:15:08;;;;;;;9.23;3.33;;;6.80;99.90;;;;;;5014338;28;20092;-42
2023/04/20 07:17:34;;;;;;;6.72;4.00;;;6.70;99.90;;;;;;5021916;28;20114;-39
2023/04/20 07:20:07;;;;;;;9.68;4.13;;;6.60;99.90;;;;;;5019279;28;20060;-40
2023/04/20 07:22:37;;;;;;;7.30;4.15;;;6.60;99.90;;;;;;5016584;28;20053;-41
2023/04/20 07:25:04;;;;;;;8.20;4.03;;;6.50;99.90;;;;;;5022149;28;20047;-41
2023/04/20 07:27:34;;;;;;;9.13;4.15;;;6.50;99.90;;;;;;5020477;28;20063;-39
2023/04/20 07:29:59;;;;;;;6.32;4.05;;;6.50;99.90;;;;;;5016882;28;20081;-36
2023/04/20 07:32:25;;;;;;;6.65;4.00;;;6.40;99.90;;;;;;5016727;28;20136;-39
2023/04/20 07:34:51;;;;;;;6.97;4.18;;;6.50;99.90;;;;;;5020456;28;20114;-38
2023/04/20 07:37:16;;;;;;;6.20;3.90;;;6.60;99.90;;;;;;5017631;28;20049;-36
2023/04/20 07:39:42;;;;;;;6.95;4.22;;;6.60;99.90;;;;;;5016072;28;20091;-37
2023/04/20 07:42:08;;;;;;;7.78;4.32;;;6.60;99.90;;;;;;5015471;28;20033;-40
2023/04/20 07:44:34;;;;;;;9.02;5.53;;;6.60;99.90;;;;;;5002452;28;20056;-40
2023/04/20 07:47:01;;;;;;;8.98;4.30;;;6.60;99.90;;;;;;5019449;28;20049;-37
2023/04/20 07:49:27;;;;;;;6.57;3.97;;;6.70;99.90;;;;;;5020201;28;20664;-38
2023/04/20 07:51:52;;;;;;;6.72;3.85;;;6.70;99.90;;;;;;5018642;28;20033;-41
2023/04/20 07:54:18;;;;;;;5.43;4.07;;;6.70;99.90;;;;;;5022964;28;20053;-36
2023/04/20 07:56:44;;;;;;;9.25;4.97;;;6.70;99.90;;;;;;5019504;28;20507;-41
2023/04/20 07:59:10;;;;;;;7.38;3.88;;;6.80;99.90;;;;;;5018734;28;20044;-36
2023/04/20 08:01:35;;;;;;;6.15;4.47;;;6.80;99.90;;;;;;5022099;28;20431;-38
2023/04/20 08:04:01;;;;;;;8.43;4.22;;;6.90;99.90;;;;;;5020564;28;20051;-36
2023/04/20 08:06:27;;;;;;;7.93;3.75;;;7.00;99.90;;;;;;5016401;28;20053;-35
2023/04/20 08:08:52;;;;;;;9.85;4.80;;;7.10;99.90;;;;;;5024620;28;20037;-38
2023/04/20 08:11:18;;;;;;;8.30;4.25;;;7.10;99.90;;;;;;5016949;28;20409;-35
2023/04/20 08:13:44;;;;;;;6.43;3.92;;;7.20;99.90;;;;;;5016371;28;20460;-40
2023/04/20 08:16:10;;;;;;;5.45;3.67;;;7.20;99.90;;;;;;5020428;28;20176;-41
2023/04/20 08:18:35;;;;;;;9.55;3.50;;;7.20;99.90;;;;;;5019345;28;20100;-39
2023/04/20 08:21:01;;;;;;;5.07;2.92;;;7.10;99.90;;;;;;5019227;28;20044;-35
2023/04/20 08:23:27;;;;;;;5.15;3.47;;;7.10;99.90;;;;;;5016660;28;20041;-39
2023/04/20 08:25:54;;;;;;;6.47;3.80;;;6.90;99.90;;;;;;5018325;28;20140;-37
2023/04/20 08:28:21;;;;;;;5.43;3.55;;;6.90;99.90;;;;;;5018384;28;20064;-40
2023/04/20 08:30:46;;;;;;;7.05;3.90;;;6.90;99.90;;;;;;5019438;28;20100;-44
2023/04/20 08:33:12;;;;;;;7.10;3.90;;;6.90;99.90;;;;;;5015429;28;20277;-36
2023/04/20 08:35:38;;;;;;;9.93;4.13;;;6.90;99.90;;;;;;5013679;28;20056;-41
2023/04/20 08:38:03;;;;;;;9.02;3.60;;;6.90;99.90;;;;;;5019292;28;20537;-37
2023/04/20 08:40:30;;;;;;;10.90;4.10;;;6.90;99.90;;;;;;5018224;28;20045;-39
2023/04/20 08:42:58;;;;;;;9.18;4.15;;;7.00;99.90;;;;;;5020753;28;20036;-36
2023/04/20 08:45:25;;;;;;;9.98;4.32;;;7.10;99.90;;;;;;5017428;28;20105;-43
2023/04/20 08:47:51;;;;;;;5.18;3.95;;;7.30;99.90;;;;;;5016553;28;20107;-40
2023/04/20 08:50:18;;;;;;;5.28;3.83;;;7.30;99.90;;;;;;5016008;28;20041;-37
2023/04/20 08:52:44;;;;;;;9.32;4.22;;;7.40;99.90;;;;;;5016784;28;20625;-41
2023/04/20 08:55:17;;;;;;;9.30;4.20;;;7.50;99.90;;;;;;5017011;28;20052;-41
2023/04/20 08:57:43;;;;;;;8.10;5.15;;;7.60;99.90;;;;;;5021240;28;20559;-39
2023/04/20 09:00:10;;;;;;;6.25;4.10;;;7.70;99.90;;;;;;5016886;28;20111;-42
2023/04/20 09:02:57;;;;;;;7.15;3.97;;;7.90;99.90;;;;;;5015860;28;20037;-40
2023/04/20 09:05:29;;;;;;;4.22;3.58;;;8.00;99.90;;;;;;5019887;28;20055;-38
2023/04/20 09:07:57;;;;;;;5.60;3.90;;;8.00;99.90;;;;;;5020242;28;20565;-38
2023/04/20 09:10:24;;;;;;;7.30;3.75;;;7.90;99.90;;;;;;5019512;28;20058;-40
2023/04/20 09:12:50;;;;;;;5.90;3.83;;;7.80;99.90;;;;;;5025807;28;20430;-42
2023/04/20 09:15:26;;;;;;;5.57;4.00;;;7.80;99.90;;;;;;5027751;28;20053;-39
2023/04/20 09:17:52;;;;;;;5.80;3.85;;;7.70;99.90;;;;;;5023638;28;20120;-35
2023/04/20 09:20:31;;;;;;;6.90;4.68;;;7.70;99.90;;;;;;5032407;28;20047;-39
2023/04/20 09:23:09;;;;;;;5.82;4.30;;;7.70;99.90;;;;;;5030924;28;20117;-35
2023/04/20 09:25:35;;;;;;;9.82;4.45;;;7.80;99.90;;;;;;5036545;28;20033;-41
2023/04/20 09:28:01;;;;;;;8.55;4.53;;;7.90;99.90;;;;;;5039856;28;20124;-40
2023/04/20 09:30:43;;;;;;;6.78;4.45;;;8.00;99.90;;;;;;5027999;28;20638;-39
2023/04/20 09:33:11;;;;;;;5.70;4.53;;;8.10;99.90;;;;;;5038044;28;20454;-41
2023/04/20 09:35:39;;;;;;;8.90;4.85;;;8.10;99.90;;;;;;5039576;28;20045;-39
2023/04/20 09:38:06;;;;;;;7.20;4.72;;;8.00;99.90;;;;;;5037956;28;20140;-45
2023/04/20 09:40:32;;;;;;;7.18;4.18;;;8.00;99.90;;;;;;5039167;28;20056;-38
2023/04/20 09:43:06;;;;;;;6.47;4.57;;;8.00;99.90;;;;;;5038758;28;20045;-38
2023/04/20 09:45:31;;;;;;;;;;;8.00;99.90;;;;;;5037637;28;20057;-39
2023/04/20 09:47:58;;;;;;;8.20;4.28;;;8.10;99.90;;;;;;5041460;28;19950;-36
2023/04/20 09:50:24;;;;;;;6.05;4.63;;;8.20;99.90;;;;;;5039068;28;20098;-46
2023/04/20 09:52:51;;;;;;;7.32;4.32;;;8.20;99.90;;;;;;5038399;28;20208;-42
2023/04/20 09:55:17;;;;;;;8.48;4.78;;;8.30;99.90;;;;;;5054393;28;20052;-41
2023/04/20 09:57:44;;;;;;;4.90;4.32;;;8.30;99.90;;;;;;5039259;28;20045;-37
2023/04/20 10:00:11;;;;;;;8.18;4.60;;;8.30;99.90;;;;;;5030153;28;20594;-39
2023/04/20 10:02:37;;;;;;;6.72;4.55;;;8.30;99.90;;;;;;5038495;28;20087;-39
2023/04/20 10:05:03;;;;;;;7.50;5.20;;;8.40;99.90;;;;;;5039028;28;20045;-36
2023/04/20 10:07:31;;;;;;;6.43;4.72;;;8.40;99.90;;;;;;5038463;28;20048;-42
2023/04/20 10:10:04;;;;;;;5.80;4.30;;;8.50;99.90;;;;;;5038017;28;20052;-40
2023/04/20 10:12:29;;;;;;;5.65;4.10;;;8.50;99.90;;;;;;5035568;28;20048;-40
2023/04/20 10:14:59;;;;;;;6.80;4.43;;;8.60;99.90;;;;;;5025473;28;20798;-38
2023/04/20 10:17:32;;;;;;;8.52;4.88;;;8.70;99.90;;;;;;5038162;28;20045;-40
2023/04/20 10:19:58;;;;;;;8.73;4.50;;;8.70;99.90;;;;;;5027850;28;20107;-41
2023/04/20 10:22:38;;;;;;;5.95;4.65;;;8.70;99.90;;;;;;5034957;28;20041;-36
2023/04/20 10:25:19;;;;;;;7.07;4.60;;;8.60;99.90;;;;;;5037994;28;20041;-35
2023/04/20 10:28:04;;;;;;;7.05;5.00;;;8.50;99.90;;;;;;5030626;28;20052;-39
2023/04/20 10:30:31;;;;;;;6.95;5.22;;;8.30;99.90;;;;;;5021776;28;20154;-41
2023/04/20 10:33:08;;;;;;;9.40;5.30;;;8.20;99.90;;;;;;5025319;28;20044;-39
2023/04/20 10:35:55;;;;;;;18.05;5.82;;;8.30;99.90;;;;;;5029661;28;20817;-45
2023/04/20 10:38:34;;;;;;;6.53;4.60;;;8.30;99.90;;;;;;5018497;28;20390;-36
2023/04/20 10:41:10;;;;;;;6.65;4.88;;;8.20;99.90;;;;;;5037155;28;20111;-41
2023/04/20 10:43:42;;;;;;;9.75;5.75;;;8.10;99.90;;;;;;5022884;28;20573;-42
2023/04/20 10:46:18;;;;;;;7.20;5.22;;;8.10;99.90;;;;;;5035447;28;20037;-35
2023/04/20 10:49:00;;;;;;;9.65;5.55;;;8.20;99.90;;;;;;5017435;28;20050;-42
2023/04/20 10:51:26;;;;;;;7.55;5.47;;;8.20;99.90;;;;;;5033983;28;20132;-38
2023/04/20 10:54:04;;;;;;;10.20;5.25;;;8.20;99.90;;;;;;5037192;28;20505;-35
2023/04/20 10:56:40;;;;;;;9.13;5.95;;;8.20;99.90;;;;;;5034429;28;20045;-40
2023/04/20 10:59:14;;;;;;;8.07;5.88;;;8.30;99.90;;;;;;5039283;28;20052;-37
2023/04/20 11:01:40;;;;;;;8.20;5.95;;;8.30;99.90;;;;;;5037308;28;20048;-42
2023/04/20 11:04:07;;;;;;;9.30;6.10;;;8.30;99.90;;;;;;5034604;28;20082;-42
2023/04/20 11:06:33;;;;;;;9.32;5.95;;;8.20;99.90;;;;;;5027211;28;20037;-36
2023/04/20 11:08:59;;;;;;;9.23;6.60;;;8.10;99.90;;;;;;5035289;28;20080;-37
2023/04/20 11:11:27;;;;;;;8.45;5.90;;;8.20;99.90;;;;;;5031807;28;20124;-42
2023/04/20 11:14:13;;;;;;;8.35;6.10;;;8.20;99.90;;;;;;5037151;28;20146;-37
2023/04/20 11:16:39;;;;;;;8.32;6.15;;;8.10;99.90;;;;;;5033065;28;20492;-38
2023/04/20 11:19:05;;;;;;;10.30;6.25;;;8.10;99.90;;;;;;5032391;28;20152;-41
2023/04/20 11:21:41;;;;;;;9.63;6.18;;;8.20;99.90;;;;;;5037133;28;20041;-37
2023/04/20 11:24:24;;;;;;;8.52;6.10;;;8.30;99.90;;;;;;5036625;28;20095;-41
2023/04/20 11:26:52;;;;;;;8.45;6.53;;;8.30;99.90;;;;;;5037470;28;20052;-41
2023/04/20 11:29:36;;;;;;;10.25;6.13;;;8.30;99.90;;;;;;5036414;28;20045;-38
2023/04/20 11:32:09;;;;;;;8.13;6.07;;;8.20;99.90;;;;;;5022558;28;20045;-36
2023/04/20 11:34:37;;;;;;;8.25;6.25;;;8.20;99.90;;;;;;5037324;28;20437;-40
2023/04/20 11:37:12;;;;;;;8.40;6.45;;;8.40;99.90;;;;;;5032028;28;20403;-37
2023/04/20 11:39:38;;;;;;;10.10;6.60;;;8.50;99.90;;;;;;5029922;28;20498;-36
2023/04/20 11:42:05;;;;;;;8.93;6.63;;;8.60;99.90;;;;;;5022823;28;20727;-44
2023/04/20 11:44:31;;;;;;;8.63;6.10;;;8.70;99.90;;;;;;5036443;28;20049;-38
2023/04/20 11:46:57;;;;;;;7.90;6.10;;;8.80;99.90;;;;;;5036256;28;20088;-38
2023/04/20 11:49:25;;;;;;;8.70;6.65;;;8.80;99.90;;;;;;5035474;28;20156;-41
2023/04/20 11:51:51;;;;;;;10.02;7.15;;;8.80;99.90;;;;;;5051987;28;20041;-38
2023/04/20 11:54:20;;;;;;;7.65;6.85;;;8.90;99.90;;;;;;5036519;28;20052;-39
2023/04/20 11:56:46;;;;;;;11.70;8.05;;;9.00;99.90;;;;;;5035035;28;20045;-37
2023/04/20 11:59:13;;;;;;;8.10;6.13;;;9.20;99.90;;;;;;5051414;28;20045;-38
2023/04/20 12:01:39;;;;;;;8.10;6.05;;;9.30;99.90;;;;;;5034744;28;20044;-42
2023/04/20 12:04:05;;;;;;;8.27;6.22;;;9.50;99.90;;;;;;5035689;28;20063;-42
2023/04/20 12:06:31;;;;;;;8.95;6.10;;;9.70;99.90;;;;;;5036472;28;20041;-42
2023/04/20 12:08:57;;;;;;;8.50;6.53;;;9.80;99.90;;;;;;5036684;28;20400;-38
2023/04/20 12:11:23;;;;;;;10.57;8.02;;;10.00;99.90;;;;;;5036196;28;20041;-35
2023/04/20 12:13:50;;;;;;;7.65;6.50;;;10.10;99.90;;;;;;5034728;28;20057;-39
2023/04/20 12:16:15;;;;;;;7.50;6.50;;;10.00;99.90;;;;;;5051464;28;20546;-39
2023/04/20 12:18:41;;;;;;;9.07;6.97;;;10.10;99.90;;;;;;5034235;28;20049;-42
2023/04/20 12:21:07;;;;;;;11.60;7.32;;;10.20;99.90;;;;;;5029473;28;20095;-40
2023/04/20 12:23:35;;;;;;;8.63;6.82;;;10.20;99.90;;;;;;5028869;28;20387;-39
2023/04/20 12:26:02;;;;;;;9.13;8.23;;;10.30;99.90;;;;;;5035987;28;20049;-41
2023/04/20 12:28:29;;;;;;;10.85;7.38;;;10.50;99.90;;;;;;5033329;28;20048;-39
2023/04/20 12:30:54;;;;;;;8.88;7.28;;;10.70;99.90;;;;;;5032532;28;20578;-46
2023/04/20 12:33:20;;;;;;;9.52;8.35;;;10.60;99.90;;;;;;5029150;28;20550;-40
2023/04/20 12:35:46;;;;;;;10.10;8.45;;;10.70;99.90;;;;;;5052070;28;20553;-37
2023/04/20 12:38:17;;;;;;;10.65;8.48;;;10.80;99.90;;;;;;5035710;28;20566;-41
2023/04/20 12:40:42;;;;;;;9.10;8.15;;;10.90;99.90;;;;;;5035792;28;20077;-36
2023/04/20 12:43:08;;;;;;;10.40;8.48;;;10.80;99.90;;;;;;5034437;28;20215;-36
2023/04/20 12:45:34;;;;;;;8.82;7.90;;;10.60;99.90;;;;;;5036510;28;20079;-39
2023/04/20 12:48:00;;;;;;;11.02;8.40;;;10.50;99.90;;;;;;5033158;28;20143;-44
2023/04/20 12:50:25;;;;;;;9.80;8.52;;;10.30;99.90;;;;;;5023739;28;20867;-37
2023/04/20 12:52:51;;;;;;;9.23;8.05;;;10.20;99.90;;;;;;5035272;28;20044;-41
2023/04/20 12:55:18;;;;;;;12.48;8.25;;;10.30;99.90;;;;;;5036172;28;20491;-39